Time;durP1;ratioP1;P1;durP2;ratioP2;P2;SDS_P1;SDS_P2;PMS_P1;PMS_P2;Temp;Humidity;BMP_temperature;BMP_pressure;BME280_temperature;BME280_humidity;BME280_pressure;Samples;Min_cycle;Max_cycle;Signal;HPM_P1;HPM_P2
2022/12/02 00:01:45;;;;;;;53.20;38.35;;;;;;;;;;10077420;28;20056;-63
2022/12/02 00:06:39;;;;;;;57.40;40.13;;;;;;;;;;10080107;28;20061;-62
2022/12/02 00:11:32;;;;;;;52.75;38.25;;;;;;;;;;10080311;28;20041;-63
2022/12/02 00:16:25;;;;;;;55.72;38.90;;;;;;;;;;10068024;28;20056;-63
2022/12/02 00:21:20;;;;;;;51.28;39.50;;;;;;;;;;10068039;28;20065;-63
2022/12/02 00:26:14;;;;;;;56.65;40.33;;;;;;;;;;10068540;28;20057;-64
2022/12/02 00:31:06;;;;;;;53.70;36.45;;;;;;;;;;10067088;28;20111;-64
2022/12/02 00:36:00;;;;;;;55.55;39.13;;;;;;;;;;10066947;28;20061;-64
2022/12/02 00:40:53;;;;;;;49.75;36.40;;;;;;;;;;10068135;28;20053;-63
2022/12/02 00:50:58;;;;;;;70.47;46.55;;;;;;;;;;10066046;28;20476;-63
2022/12/02 00:55:51;;;;;;;55.95;42.42;;;;;;;;;;10066375;28;20063;-63
2022/12/02 01:00:45;;;;;;;66.07;41.30;;;;;;;;;;10067167;28;20116;-63
2022/12/02 01:05:39;;;;;;;58.25;42.13;;;;;;;;;;10066440;28;20107;-63
2022/12/02 01:10:32;;;;;;;61.85;42.70;;;;;;;;;;10066932;28;20412;-63
2022/12/02 01:15:26;;;;;;;59.05;41.22;;;;;;;;;;10065422;28;20056;-63
2022/12/02 01:20:19;;;;;;;59.20;41.67;;;;;;;;;;10064932;28;20045;-63
2022/12/02 01:25:13;;;;;;;67.15;46.42;;;;;;;;;;10066648;28;20052;-63
2022/12/02 01:30:09;;;;;;;57.90;41.15;;;;;;;;;;10063464;28;20053;-63
2022/12/02 01:35:04;;;;;;;56.28;41.05;;;;;;;;;;10066998;28;20465;-64
2022/12/02 01:39:58;;;;;;;62.50;41.67;;;;;;;;;;10065224;28;20057;-63
2022/12/02 01:44:52;;;;;;;61.83;41.88;;;;;;;;;;10069743;28;20085;-63
2022/12/02 01:49:46;;;;;;;64.88;43.40;;;;;;;;;;10073105;28;20099;-63
2022/12/02 01:54:41;;;;;;;61.88;42.58;;;;;;;;;;10072258;28;20057;-64
2022/12/02 01:59:35;;;;;;;58.25;40.42;;;;;;;;;;10073866;28;20053;-64
2022/12/02 02:04:28;;;;;;;67.30;42.15;;;;;;;;;;10073501;28;20524;-64
2022/12/02 02:09:22;;;;;;;55.78;38.88;;;;;;;;;;10072732;28;20061;-64
2022/12/02 02:14:15;;;;;;;60.78;39.47;;;;;;;;;;10072232;28;20057;-63
2022/12/02 02:19:12;;;;;;;58.10;37.65;;;;;;;;;;10071952;28;20041;-63
2022/12/02 02:24:06;;;;;;;57.88;39.05;;;;;;;;;;10054979;28;20057;-63
2022/12/02 02:29:01;;;;;;;53.90;37.90;;;;;;;;;;10071308;28;20144;-64
2022/12/02 02:33:55;;;;;;;57.17;37.35;;;;;;;;;;10068124;28;20073;-63
2022/12/02 02:38:49;;;;;;;55.38;43.05;;;;;;;;;;10071263;28;20053;-64
2022/12/02 02:43:44;;;;;;;54.20;39.63;;;;;;;;;;10072157;28;20045;-64
2022/12/02 02:48:37;;;;;;;58.83;39.13;;;;;;;;;;10071006;28;20050;-63
2022/12/02 02:53:32;;;;;;;59.60;41.50;;;;;;;;;;10070022;28;20505;-63
2022/12/02 02:58:27;;;;;;;54.25;38.15;;;;;;;;;;10070436;28;20107;-63
2022/12/02 03:03:23;;;;;;;58.60;41.25;;;;;;;;;;10070260;28;20373;-63
2022/12/02 03:08:17;;;;;;;64.05;41.35;;;;;;;;;;10070240;28;20484;-64
2022/12/02 03:13:11;;;;;;;62.65;38.95;;;;;;;;;;10070380;28;20491;-64
2022/12/02 03:18:06;;;;;;;62.10;43.70;;;;;;;;;;10069859;28;20055;-64
2022/12/02 03:23:00;;;;;;;60.92;42.55;;;;;;;;;;10070815;28;20053;-64
2022/12/02 03:27:55;;;;;;;58.28;41.88;;;;;;;;;;10069006;28;20049;-64
2022/12/02 03:32:48;;;;;;;59.20;43.10;;;;;;;;;;10068585;28;20110;-64
2022/12/02 03:37:42;;;;;;;58.08;40.55;;;;;;;;;;10069606;28;20057;-64
2022/12/02 03:42:35;;;;;;;68.75;45.08;;;;;;;;;;10070098;28;20107;-64
2022/12/02 03:47:29;;;;;;;62.08;42.72;;;;;;;;;;10068150;28;20474;-63
2022/12/02 03:52:21;;;;;;;61.20;42.60;;;;;;;;;;10069658;28;20124;-64
2022/12/02 03:57:16;;;;;;;55.60;40.28;;;;;;;;;;10069393;28;20068;-64
2022/12/02 04:02:10;;;;;;;72.85;45.10;;;;;;;;;;10068645;28;20045;-64
2022/12/02 04:07:05;;;;;;;67.00;45.15;;;;;;;;;;10068089;28;20518;-64
2022/12/02 04:11:59;;;;;;;71.25;43.33;;;;;;;;;;10069033;28;20423;-64
2022/12/02 04:16:53;;;;;;;57.53;40.22;;;;;;;;;;10068709;28;20415;-64
2022/12/02 04:21:47;;;;;;;56.83;38.83;;;;;;;;;;10066554;28;20061;-64
2022/12/02 04:26:41;;;;;;;59.28;41.92;;;;;;;;;;10068650;28;20137;-64
2022/12/02 04:31:36;;;;;;;56.72;42.40;;;;;;;;;;10067256;28;20057;-64
2022/12/02 04:36:30;;;;;;;59.90;39.40;;;;;;;;;;10067902;28;20052;-64
2022/12/02 04:41:23;;;;;;;56.40;40.38;;;;;;;;;;10067917;28;20045;-64
2022/12/02 04:46:17;;;;;;;58.75;37.78;;;;;;;;;;10067422;28;20050;-64
2022/12/02 04:51:12;;;;;;;57.05;38.95;;;;;;;;;;10067738;28;20060;-64
2022/12/02 04:56:06;;;;;;;54.53;36.13;;;;;;;;;;10067064;28;20048;-64
2022/12/02 05:01:02;;;;;;;49.22;34.97;;;;;;;;;;10067093;28;20049;-64
2022/12/02 05:05:55;;;;;;;52.35;34.13;;;;;;;;;;10067376;28;20045;-64
2022/12/02 05:10:50;;;;;;;51.08;34.13;;;;;;;;;;10066958;28;20057;-65
2022/12/02 05:15:46;;;;;;;49.38;34.13;;;;;;;;;;10066640;28;20080;-64
2022/12/02 05:20:40;;;;;;;50.53;33.60;;;;;;;;;;10066327;28;20099;-64
2022/12/02 05:25:34;;;;;;;47.13;33.13;;;;;;;;;;10067095;28;20049;-64
2022/12/02 05:30:28;;;;;;;49.55;33.22;;;;;;;;;;10065953;28;20053;-64
2022/12/02 05:35:22;;;;;;;49.72;33.13;;;;;;;;;;10066758;28;20476;-64
2022/12/02 05:40:15;;;;;;;45.22;32.78;;;;;;;;;;10066391;28;20054;-64
2022/12/02 05:45:25;;;;;;;44.25;31.40;;;;;;;;;;10066335;28;20065;-64
2022/12/02 05:50:19;;;;;;;42.80;30.58;;;;;;;;;;10065603;28;20046;-64
2022/12/02 05:55:20;;;;;;;42.72;31.45;;;;;;;;;;10059040;28;20057;-64
2022/12/02 06:00:18;;;;;;;46.03;30.10;;;;;;;;;;10065948;28;20088;-64
2022/12/02 06:05:40;;;;;;;42.40;28.97;;;;;;;;;;10065772;28;20049;-64
2022/12/02 06:10:36;;;;;;;37.63;29.35;;;;;;;;;;10066012;28;20077;-64
2022/12/02 06:15:35;;;;;;;36.58;24.88;;;;;;;;;;10065998;28;20041;-64
2022/12/02 06:20:32;;;;;;;37.08;25.33;;;;;;;;;;10065015;28;20136;-64
2022/12/02 06:25:30;;;;;;;36.10;25.00;;;;;;;;;;10065471;28;20060;-64
2022/12/02 06:30:24;;;;;;;39.13;25.20;;;;;;;;;;10077216;28;20552;-64
2022/12/02 06:35:21;;;;;;;37.75;26.85;;;;;;;;;;10084662;28;20128;-63
2022/12/02 06:40:30;;;;;;;37.72;29.17;;;;;;;;;;10075293;28;20092;-64
2022/12/02 06:45:30;;;;;;;39.15;27.75;;;;;;;;;;10077577;28;20096;-64
2022/12/02 06:50:29;;;;;;;43.05;26.65;;;;;;;;;;10076655;28;20045;-65
2022/12/02 06:55:22;;;;;;;;;;;;;;;;;;10079027;28;20037;-65
2022/12/02 07:00:17;;;;;;;38.88;25.25;;;;;;;;;;10070498;28;20296;-66
2022/12/02 07:05:18;;;;;;;41.03;26.67;;;;;;;;;;10070614;28;20166;-66
2022/12/02 07:10:29;;;;;;;42.78;28.98;;;;;;;;;;10069598;28;20049;-65
2022/12/02 07:15:32;;;;;;;40.35;29.15;;;;;;;;;;10070242;28;20041;-64
2022/12/02 07:20:32;;;;;;;43.10;27.80;;;;;;;;;;10068191;28;20124;-63
2022/12/02 07:25:44;;;;;;;35.58;24.08;;;;;;;;;;10067365;28;20077;-65
2022/12/02 07:30:40;;;;;;;29.23;18.63;;;;;;;;;;10067405;28;20049;-65
2022/12/02 07:35:33;;;;;;;25.00;18.45;;;;;;;;;;10067505;28;20096;-65
2022/12/02 07:40:27;;;;;;;24.25;17.45;;;;;;;;;;10080007;28;20081;-64
2022/12/02 07:45:22;;;;;;;22.88;15.95;;;;;;;;;;10067042;28;20056;-64
2022/12/02 07:50:17;;;;;;;21.92;16.63;;;;;;;;;;10065094;28;20081;-64
2022/12/02 07:55:10;;;;;;;20.17;13.68;;;;;;;;;;10067790;28;20034;-64
2022/12/02 08:00:05;;;;;;;11.35;9.73;;;;;;;;;;10066188;28;20053;-65
2022/12/02 08:05:07;;;;;;;10.13;8.48;;;;;;;;;;10064430;28;20077;-65
2022/12/02 08:10:01;;;;;;;12.15;9.02;;;;;;;;;;10065612;28;20393;-65
2022/12/02 08:14:55;;;;;;;15.13;10.43;;;;;;;;;;10066831;28;20115;-65
2022/12/02 08:19:48;;;;;;;12.35;9.15;;;;;;;;;;10068008;28;21393;-65
2022/12/02 08:24:42;;;;;;;11.85;8.63;;;;;;;;;;10066101;28;20045;-65
2022/12/02 08:29:36;;;;;;;16.50;11.32;;;;;;;;;;10067629;28;20049;-64
2022/12/02 08:34:30;;;;;;;15.70;8.75;;;;;;;;;;10066795;28;20136;-64
2022/12/02 08:39:23;;;;;;;11.30;9.32;;;;;;;;;;10066716;28;20049;-64
2022/12/02 08:44:17;;;;;;;12.52;9.80;;;;;;;;;;10065230;28;20050;-63
2022/12/02 08:49:11;;;;;;;9.73;7.18;;;;;;;;;;10063064;28;20103;-63
2022/12/02 08:54:04;;;;;;;10.38;7.75;;;;;;;;;;10055912;28;20075;-64
2022/12/02 08:58:57;;;;;;;8.50;6.25;;;;;;;;;;10065371;28;20052;-63
2022/12/02 09:03:51;;;;;;;9.75;6.85;;;;;;;;;;10066174;28;20080;-64
2022/12/02 09:08:45;;;;;;;9.98;7.57;;;;;;;;;;10066314;28;20500;-64
2022/12/02 09:13:39;;;;;;;11.98;7.03;;;;;;;;;;10065334;28;20465;-64
2022/12/02 09:18:33;;;;;;;9.60;7.32;;;;;;;;;;10064852;28;20111;-64
2022/12/02 09:23:28;;;;;;;17.13;7.47;;;;;;;;;;10064858;28;20417;-64
2022/12/02 09:28:22;;;;;;;10.60;6.18;;;;;;;;;;10064550;28;20056;-64
2022/12/02 09:33:16;;;;;;;8.77;6.90;;;;;;;;;;10064124;28;20394;-63
2022/12/02 09:38:10;;;;;;;16.02;8.13;;;;;;;;;;10066627;28;20064;-63
2022/12/02 09:43:04;;;;;;;12.30;9.65;;;;;;;;;;10065239;28;20077;-63
2022/12/02 09:47:59;;;;;;;13.55;8.73;;;;;;;;;;10065198;28;20045;-63
2022/12/02 09:53:05;;;;;;;15.43;9.75;;;;;;;;;;10064735;28;20049;-64
2022/12/02 09:58:16;;;;;;;9.93;8.27;;;;;;;;;;10063082;28;20059;-65
2022/12/02 10:03:15;;;;;;;12.02;8.10;;;;;;;;;;10061064;28;20053;-66
2022/12/02 10:08:15;;;;;;;12.32;8.95;;;;;;;;;;10070370;28;20526;-63
2022/12/02 10:13:17;;;;;;;14.23;11.20;;;;;;;;;;10073029;28;20485;-63
2022/12/02 10:18:19;;;;;;;15.63;10.43;;;;;;;;;;10071840;28;20053;-63
2022/12/02 10:23:11;;;;;;;15.50;11.13;;;;;;;;;;10071263;28;20442;-63
2022/12/02 10:28:07;;;;;;;21.73;10.32;;;;;;;;;;10071850;28;20072;-65
2022/12/02 10:33:04;;;;;;;19.98;11.43;;;;;;;;;;10070747;28;20091;-63
2022/12/02 10:37:58;;;;;;;18.52;10.27;;;;;;;;;;10071920;28;20056;-63
2022/12/02 10:43:07;;;;;;;14.93;10.35;;;;;;;;;;10071769;28;20054;-63
2022/12/02 10:48:17;;;;;;;12.73;9.77;;;;;;;;;;10070110;28;20128;-63
2022/12/02 10:53:15;;;;;;;13.85;10.75;;;;;;;;;;10071642;28;20072;-63
2022/12/02 10:58:14;;;;;;;13.00;10.07;;;;;;;;;;10069695;28;20107;-63
2022/12/02 11:03:07;;;;;;;;;;;;;;;;;;10069225;28;20084;-63
2022/12/02 11:08:15;;;;;;;12.90;9.48;;;;;;;;;;10069357;28;19979;-63
2022/12/02 11:13:11;;;;;;;13.73;9.88;;;;;;;;;;10067361;28;20132;-63
2022/12/02 11:18:07;;;;;;;13.15;10.50;;;;;;;;;;10071538;28;20053;-63
2022/12/02 11:22:59;;;;;;;13.32;10.88;;;;;;;;;;10069810;28;20483;-62
2022/12/02 11:28:14;;;;;;;12.27;10.07;;;;;;;;;;10068366;28;20057;-63
2022/12/02 11:33:12;;;;;;;15.13;10.23;;;;;;;;;;10068131;28;20504;-63
2022/12/02 11:38:19;;;;;;;13.35;10.13;;;;;;;;;;10068015;28;20072;-63
2022/12/02 11:43:40;;;;;;;16.67;10.50;;;;;;;;;;10063663;28;20095;-63
2022/12/02 11:48:46;;;;;;;13.73;9.82;;;;;;;;;;10068119;28;20463;-63
2022/12/02 11:53:38;;;;;;;13.48;10.32;;;;;;;;;;10066899;28;20056;-62
2022/12/02 11:58:33;;;;;;;16.77;10.55;;;;;;;;;;10067441;28;20049;-63
2022/12/02 12:03:28;;;;;;;14.18;10.05;;;;;;;;;;10064461;28;20049;-63
2022/12/02 12:08:25;;;;;;;11.98;9.35;;;;;;;;;;10067872;28;20135;-63
2022/12/02 12:13:22;;;;;;;15.38;11.55;;;;;;;;;;10068665;28;20515;-63
2022/12/02 12:19:00;;;;;;;13.13;9.80;;;;;;;;;;10068129;28;20461;-63
2022/12/02 12:24:18;;;;;;;10.50;8.75;;;;;;;;;;10091656;28;20128;-63
2022/12/02 12:29:11;;;;;;;13.70;9.40;;;;;;;;;;10061304;28;20065;-63
2022/12/02 12:34:06;;;;;;;17.65;12.63;;;;;;;;;;10065764;28;20562;-64
2022/12/02 12:39:00;;;;;;;16.15;11.98;;;;;;;;;;10066657;28;20049;-64
2022/12/02 12:43:54;;;;;;;15.10;12.10;;;;;;;;;;10065460;28;20042;-64
2022/12/02 12:49:08;;;;;;;17.15;12.73;;;;;;;;;;10066438;28;20114;-64
2022/12/02 12:54:21;;;;;;;18.58;14.20;;;;;;;;;;10064376;28;20629;-64
2022/12/02 12:59:16;;;;;;;19.58;13.73;;;;;;;;;;10065342;28;20046;-64
2022/12/02 13:04:10;;;;;;;21.23;16.45;;;;;;;;;;10066539;28;20046;-64
2022/12/02 13:09:04;;;;;;;21.08;14.88;;;;;;;;;;10065524;28;20045;-66
2022/12/02 13:13:58;;;;;;;30.65;17.73;;;;;;;;;;10066600;28;20060;-65
2022/12/02 13:18:52;;;;;;;22.08;17.50;;;;;;;;;;10066002;28;20061;-64
2022/12/02 13:23:45;;;;;;;22.48;18.23;;;;;;;;;;10066029;28;20052;-64
2022/12/02 13:28:39;;;;;;;20.95;16.73;;;;;;;;;;10064961;28;20443;-64
2022/12/02 13:33:33;;;;;;;23.48;17.73;;;;;;;;;;10065470;28;20132;-65
2022/12/02 13:38:27;;;;;;;22.65;19.40;;;;;;;;;;10066976;28;20045;-63
2022/12/02 13:43:21;;;;;;;25.42;18.13;;;;;;;;;;10072364;28;20065;-63
2022/12/02 13:48:15;;;;;;;20.63;17.08;;;;;;;;;;10072453;28;20417;-62
2022/12/02 13:53:09;;;;;;;24.30;18.80;;;;;;;;;;10070701;28;20522;-62
2022/12/02 13:58:04;;;;;;;28.75;18.85;;;;;;;;;;10072021;28;20045;-64
2022/12/02 14:02:58;;;;;;;26.17;20.70;;;;;;;;;;10072712;28;20100;-63
2022/12/02 14:07:52;;;;;;;25.77;22.23;;;;;;;;;;10071111;28;20057;-63
2022/12/02 14:12:46;;;;;;;25.25;19.65;;;;;;;;;;10071431;28;20511;-64
2022/12/02 14:17:39;;;;;;;24.08;19.45;;;;;;;;;;10071941;28;20053;-64
2022/12/02 14:22:33;;;;;;;17.73;15.85;;;;;;;;;;10071214;28;20059;-64
2022/12/02 14:27:26;;;;;;;21.15;14.73;;;;;;;;;;10070272;28;20053;-64
2022/12/02 14:32:20;;;;;;;20.40;15.20;;;;;;;;;;10067873;28;20505;-63
2022/12/02 14:37:14;;;;;;;22.27;15.45;;;;;;;;;;10068048;28;20511;-64
2022/12/02 14:42:08;;;;;;;20.17;15.43;;;;;;;;;;10070741;28;20049;-64
2022/12/02 14:47:02;;;;;;;19.15;16.00;;;;;;;;;;10071342;28;20045;-64
2022/12/02 14:51:56;;;;;;;13.77;12.38;;;;;;;;;;10069380;28;20063;-64
2022/12/02 14:56:50;;;;;;;16.38;12.68;;;;;;;;;;10070722;28;20712;-64
2022/12/02 15:01:44;;;;;;;13.45;11.23;;;;;;;;;;10063040;28;20064;-64
2022/12/02 15:06:38;;;;;;;14.23;11.98;;;;;;;;;;10069971;28;20496;-64
2022/12/02 15:11:32;;;;;;;12.85;11.45;;;;;;;;;;10069061;28;20053;-64
2022/12/02 15:16:26;;;;;;;13.50;12.10;;;;;;;;;;10071722;28;20129;-64
2022/12/02 15:21:20;;;;;;;13.60;11.10;;;;;;;;;;10069586;28;20444;-64
2022/12/02 15:26:14;;;;;;;13.32;11.93;;;;;;;;;;10069211;28;20041;-64
2022/12/02 15:31:08;;;;;;;14.00;11.18;;;;;;;;;;10068714;28;20046;-64
2022/12/02 15:36:03;;;;;;;16.13;12.95;;;;;;;;;;10069246;28;20088;-64
2022/12/02 15:40:57;;;;;;;13.40;10.95;;;;;;;;;;10069140;28;20049;-64
2022/12/02 15:45:52;;;;;;;14.43;12.60;;;;;;;;;;10066243;28;20049;-64
2022/12/02 15:50:45;;;;;;;14.65;13.02;;;;;;;;;;10068011;28;20128;-64
2022/12/02 15:55:47;;;;;;;20.73;13.35;;;;;;;;;;10067817;28;20492;-63
2022/12/02 16:00:41;;;;;;;17.17;13.70;;;;;;;;;;10066606;28;20046;-63
2022/12/02 16:05:34;;;;;;;16.50;14.80;;;;;;;;;;10067395;28;20059;-63
2022/12/02 16:10:28;;;;;;;18.13;14.48;;;;;;;;;;10069048;28;20045;-64
2022/12/02 16:15:22;;;;;;;15.00;12.63;;;;;;;;;;10068682;28;20061;-63
2022/12/02 16:20:16;;;;;;;15.00;12.65;;;;;;;;;;10067516;28;20053;-64
2022/12/02 16:25:09;;;;;;;18.58;13.63;;;;;;;;;;10067055;28;20041;-64
2022/12/02 16:30:04;;;;;;;16.52;12.88;;;;;;;;;;10063186;28;20055;-64
2022/12/02 16:34:57;;;;;;;21.77;15.20;;;;;;;;;;10064018;28;20567;-64
2022/12/02 16:39:51;;;;;;;20.63;15.02;;;;;;;;;;10065068;28;20061;-64
2022/12/02 16:44:45;;;;;;;18.67;15.52;;;;;;;;;;10067209;28;20038;-64
2022/12/02 16:49:48;;;;;;;22.52;16.67;;;;;;;;;;10066695;28;20064;-64
2022/12/02 16:54:42;;;;;;;18.17;14.38;;;;;;;;;;10067626;28;20140;-63
2022/12/02 16:59:35;;;;;;;18.08;15.95;;;;;;;;;;10077896;28;20093;-63
2022/12/02 17:04:29;;;;;;;17.60;15.80;;;;;;;;;;10064194;28;20049;-64
2022/12/02 17:09:22;;;;;;;18.63;14.23;;;;;;;;;;10066704;28;20046;-64
2022/12/02 17:14:16;;;;;;;19.52;15.30;;;;;;;;;;10064969;28;20407;-64
2022/12/02 17:19:09;;;;;;;18.73;14.10;;;;;;;;;;10065701;28;20053;-64
2022/12/02 17:24:03;;;;;;;28.30;24.15;;;;;;;;;;10060303;28;20045;-63
2022/12/02 17:29:00;;;;;;;28.55;18.80;;;;;;;;;;10065826;28;20099;-63
2022/12/02 17:33:54;;;;;;;20.90;18.60;;;;;;;;;;10065967;28;20128;-64
2022/12/02 17:38:50;;;;;;;21.25;15.13;;;;;;;;;;10065345;28;20045;-64
2022/12/02 17:43:49;;;;;;;19.85;17.75;;;;;;;;;;10064638;28;20046;-64
2022/12/02 17:48:44;;;;;;;22.77;16.77;;;;;;;;;;10065636;28;20056;-63
2022/12/02 17:53:37;;;;;;;17.08;15.30;;;;;;;;;;10064152;28;20488;-64
2022/12/02 17:58:31;;;;;;;17.85;15.48;;;;;;;;;;10064570;28;20096;-65
2022/12/02 18:03:25;;;;;;;22.92;20.52;;;;;;;;;;10065327;28;20141;-65
2022/12/02 18:08:19;;;;;;;32.15;18.23;;;;;;;;;;10065115;28;20476;-65
2022/12/02 18:13:13;;;;;;;18.20;16.10;;;;;;;;;;10065550;28;20104;-65
2022/12/02 18:18:05;;;;;;;21.23;15.32;;;;;;;;;;10064936;28;20057;-65
2022/12/02 18:23:00;;;;;;;19.10;16.63;;;;;;;;;;10064360;28;20428;-65
2022/12/02 18:27:52;;;;;;;19.50;16.23;;;;;;;;;;10070084;28;20053;-65
2022/12/02 18:32:47;;;;;;;19.73;14.50;;;;;;;;;;10069778;28;20501;-64
2022/12/02 18:37:44;;;;;;;15.50;13.77;;;;;;;;;;10068701;28;20115;-64
2022/12/02 18:42:38;;;;;;;19.63;14.90;;;;;;;;;;10072780;28;20076;-64
2022/12/02 18:47:35;;;;;;;15.15;13.65;;;;;;;;;;10072052;28;20060;-64
2022/12/02 18:52:30;;;;;;;17.60;14.30;;;;;;;;;;10071315;28;20124;-65
2022/12/02 18:57:24;;;;;;;17.27;13.93;;;;;;;;;;10070630;28;20061;-63
2022/12/02 19:02:19;;;;;;;18.38;16.27;;;;;;;;;;10071571;28;20049;-63
2022/12/02 19:07:15;;;;;;;18.85;16.48;;;;;;;;;;10071076;28;20061;-64
2022/12/02 19:12:08;;;;;;;15.52;13.75;;;;;;;;;;10070889;28;20045;-64
2022/12/02 19:17:02;;;;;;;15.48;13.88;;;;;;;;;;10068840;28;20072;-64
2022/12/02 19:21:55;;;;;;;15.80;14.13;;;;;;;;;;10069734;28;20076;-64
2022/12/02 19:26:49;;;;;;;17.83;13.57;;;;;;;;;;10067435;28;20045;-64
2022/12/02 19:31:43;;;;;;;17.83;14.50;;;;;;;;;;10066670;28;20050;-65
2022/12/02 19:36:39;;;;;;;14.90;13.30;;;;;;;;;;10061757;28;20128;-63
2022/12/02 19:41:34;;;;;;;15.75;13.98;;;;;;;;;;10063816;28;20129;-63
2022/12/02 19:46:29;;;;;;;15.70;14.10;;;;;;;;;;10063626;28;20056;-61
2022/12/02 19:51:23;;;;;;;16.02;14.32;;;;;;;;;;10064805;28;20132;-65
2022/12/02 19:56:17;;;;;;;16.00;14.40;;;;;;;;;;10067787;28;20137;-63
2022/12/02 20:01:11;;;;;;;15.40;13.85;;;;;;;;;;10067918;28;20128;-72
2022/12/02 20:06:06;;;;;;;16.63;14.88;;;;;;;;;;10065914;28;20049;-71
2022/12/02 20:11:00;;;;;;;16.50;14.80;;;;;;;;;;10068526;28;20049;-73
2022/12/02 20:15:53;;;;;;;18.15;15.75;;;;;;;;;;10066450;28;20055;-70
2022/12/02 20:20:50;;;;;;;20.38;17.30;;;;;;;;;;10067794;28;20053;-70
2022/12/02 20:25:44;;;;;;;19.98;15.40;;;;;;;;;;10068248;28;20068;-70
2022/12/02 20:30:39;;;;;;;17.92;15.07;;;;;;;;;;10067752;28;20045;-70
2022/12/02 20:35:34;;;;;;;17.48;14.55;;;;;;;;;;10066013;28;20045;-70
2022/12/02 20:40:27;;;;;;;17.42;15.02;;;;;;;;;;10065591;28;20045;-70
2022/12/02 20:45:22;;;;;;;17.73;15.93;;;;;;;;;;10064968;28;20068;-70
2022/12/02 20:50:16;;;;;;;16.88;15.15;;;;;;;;;;10065185;28;20127;-70
2022/12/02 20:55:11;;;;;;;18.77;16.83;;;;;;;;;;10066084;28;20037;-70
2022/12/02 21:00:08;;;;;;;19.65;17.63;;;;;;;;;;10067727;28;20060;-71
2022/12/02 21:05:02;;;;;;;20.20;17.98;;;;;;;;;;10063905;28;20076;-67
2022/12/02 21:09:57;;;;;;;19.17;15.45;;;;;;;;;;10065506;28;20076;-67
2022/12/02 21:14:50;;;;;;;16.90;14.98;;;;;;;;;;10064969;28;20404;-71
2022/12/02 21:19:45;;;;;;;20.48;16.60;;;;;;;;;;10065753;28;20083;-68
2022/12/02 21:24:39;;;;;;;23.83;18.10;;;;;;;;;;10064437;28;20100;-69
2022/12/02 21:29:32;;;;;;;26.23;19.65;;;;;;;;;;10063768;28;20092;-68
2022/12/02 21:34:25;;;;;;;22.52;18.83;;;;;;;;;;10065521;28;20069;-74
2022/12/02 21:39:19;;;;;;;19.67;17.63;;;;;;;;;;10060703;28;20493;-69
2022/12/02 21:44:14;;;;;;;18.95;16.73;;;;;;;;;;10064391;28;20115;-68
2022/12/02 21:49:08;;;;;;;20.40;17.40;;;;;;;;;;10062558;28;20053;-67
2022/12/02 21:54:01;;;;;;;19.77;17.67;;;;;;;;;;10063697;28;20084;-70
2022/12/02 21:58:55;;;;;;;21.98;17.17;;;;;;;;;;10063385;28;20138;-69
2022/12/02 22:03:50;;;;;;;21.60;18.67;;;;;;;;;;10069308;28;20111;-69
2022/12/02 22:08:43;;;;;;;20.38;18.27;;;;;;;;;;10069956;28;20137;-69
2022/12/02 22:13:37;;;;;;;21.02;17.98;;;;;;;;;;10073160;28;20059;-69
2022/12/02 22:18:32;;;;;;;21.45;19.17;;;;;;;;;;10072200;28;20053;-69
2022/12/02 22:23:25;;;;;;;21.95;18.80;;;;;;;;;;10060729;28;20072;-69
2022/12/02 22:28:18;;;;;;;21.05;18.67;;;;;;;;;;10072432;28;20104;-69
2022/12/02 22:33:12;;;;;;;26.55;20.27;;;;;;;;;;10060665;28;20080;-69
2022/12/02 22:38:05;;;;;;;21.83;19.27;;;;;;;;;;10072059;28;20053;-69
2022/12/02 22:42:59;;;;;;;23.55;20.25;;;;;;;;;;10072763;28;20053;-68
2022/12/02 22:47:53;;;;;;;29.38;22.30;;;;;;;;;;10072154;28;20451;-68
2022/12/02 22:52:47;;;;;;;25.98;22.38;;;;;;;;;;10071668;28;20057;-68
2022/12/02 22:57:41;;;;;;;27.50;21.88;;;;;;;;;;10071695;28;20393;-68
2022/12/02 23:02:35;;;;;;;26.98;20.85;;;;;;;;;;10071764;28;20052;-68
2022/12/02 23:07:29;;;;;;;29.85;22.95;;;;;;;;;;10071321;28;20107;-69
2022/12/02 23:12:24;;;;;;;35.97;25.88;;;;;;;;;;10070484;28;20137;-69
2022/12/02 23:17:18;;;;;;;25.88;21.25;;;;;;;;;;10072330;28;20523;-69
2022/12/02 23:22:11;;;;;;;22.13;19.70;;;;;;;;;;10076291;28;20057;-73
2022/12/02 23:27:05;;;;;;;23.70;19.65;;;;;;;;;;10083699;28;20500;-71
2022/12/02 23:31:59;;;;;;;22.98;19.95;;;;;;;;;;10090559;28;20049;-70
2022/12/02 23:36:53;;;;;;;22.60;18.80;;;;;;;;;;10084121;28;20048;-70
2022/12/02 23:41:47;;;;;;;26.48;19.80;;;;;;;;;;10082949;28;20053;-70
2022/12/02 23:46:41;;;;;;;24.65;18.90;;;;;;;;;;10089905;28;20136;-70
2022/12/02 23:51:36;;;;;;;20.92;18.13;;;;;;;;;;10082376;28;20053;-70
2022/12/02 23:56:29;;;;;;;19.58;16.73;;;;;;;;;;10085078;28;20115;-70
